Decoded Metar for KSGJ (ST AUGUSTINE in FL, USA) (IATA:SGJ) | Meteo·Mobile Aviation Weather
aviador You're here:

KSGJ Decoded Metar

ST AUGUSTINE in FL, USA
Report Time2019-03-18 18:56:00
UTC Time2019-03-18 19:43:26
Flight Rules vfr VFR
Wind010° at 13 Gusting to 20 kt
W.Decomp.*RWY 02: 12.9 kt HW 1.4 kt LCW
RWY 06: 9.0 kt HW 9.4 kt LCW
RWY 31: 5.7 kt HW 11.7 kt RCW
W.Rank010° ranks 11
Current wind is above 010° avg. (10.4)
Visibility9999 m
Phenomena:N/A
Clouds:N/A
Expected CloudBase > 4,000 ft AGL from Temp-Dew spread
CeilingNone
Temp18°C (ISA +3)
Dew Point08°C (52% RH)
AAT12.9°C
QNH1022 hPa
Density Alt207 ft
Elevation10 ft
Report Wrong Elevation
Raw Report
KSGJ 181856Z 01013G20KT 10SM CLR 18/08 A3017 RMK AO2 SLP215
T01780083=

Extra information for KSGJ:More info

Metar Taf Metar & Taf Last 4 Metars F.Rules Stats Wind Profile Meteogram Temp Stats Airport Information Weather charts Add Link Nearby VenuesMetar ALERT Operation Metar Decoded Social comments

AIRNAV info for KSGJ